sensor_id;sensor_type;location;lat;lon;timestamp;P1;durP1;ratioP1;P2;durP2;ratioP2
82948;SDS011;72736;50.236;18.876;2024-03-02T00:01:33;64.10;;;33.40;;
82948;SDS011;72736;50.236;18.876;2024-03-02T00:06:36;73.20;;;34.90;;
82948;SDS011;72736;50.236;18.876;2024-03-02T00:11:39;65.40;;;31.90;;
82948;SDS011;72736;50.236;18.876;2024-03-02T00:16:42;61.50;;;30.50;;
82948;SDS011;72736;50.236;18.876;2024-03-02T00:21:45;61.40;;;29.40;;
82948;SDS011;72736;50.236;18.876;2024-03-02T00:26:49;65.20;;;28.80;;
82948;SDS011;72736;50.236;18.876;2024-03-02T00:31:52;59.00;;;28.90;;
82948;SDS011;72736;50.236;18.876;2024-03-02T00:36:57;54.20;;;26.10;;
82948;SDS011;72736;50.236;18.876;2024-03-02T00:42:02;59.20;;;28.00;;
82948;SDS011;72736;50.236;18.876;2024-03-02T00:47:05;57.80;;;26.00;;
82948;SDS011;72736;50.236;18.876;2024-03-02T00:52:08;59.90;;;26.90;;
82948;SDS011;72736;50.236;18.876;2024-03-02T00:57:13;56.10;;;26.40;;
82948;SDS011;72736;50.236;18.876;2024-03-02T01:02:17;53.80;;;25.50;;
82948;SDS011;72736;50.236;18.876;2024-03-02T01:07:21;52.90;;;24.50;;
82948;SDS011;72736;50.236;18.876;2024-03-02T01:12:24;52.60;;;25.30;;
82948;SDS011;72736;50.236;18.876;2024-03-02T01:17:27;52.90;;;25.90;;
82948;SDS011;72736;50.236;18.876;2024-03-02T01:22:30;51.70;;;24.00;;
82948;SDS011;72736;50.236;18.876;2024-03-02T01:27:33;51.20;;;24.60;;
82948;SDS011;72736;50.236;18.876;2024-03-02T01:32:38;52.00;;;26.00;;
82948;SDS011;72736;50.236;18.876;2024-03-02T01:37:41;73.30;;;33.80;;
82948;SDS011;72736;50.236;18.876;2024-03-02T01:42:44;50.50;;;24.00;;
82948;SDS011;72736;50.236;18.876;2024-03-02T01:47:46;49.00;;;24.10;;
82948;SDS011;72736;50.236;18.876;2024-03-02T01:52:50;50.60;;;24.30;;
82948;SDS011;72736;50.236;18.876;2024-03-02T01:57:53;50.40;;;22.80;;
82948;SDS011;72736;50.236;18.876;2024-03-02T02:02:56;51.20;;;23.20;;
82948;SDS011;72736;50.236;18.876;2024-03-02T02:08:00;52.30;;;25.30;;
82948;SDS011;72736;50.236;18.876;2024-03-02T02:13:03;48.40;;;23.60;;
82948;SDS011;72736;50.236;18.876;2024-03-02T02:18:06;49.80;;;23.00;;
82948;SDS011;72736;50.236;18.876;2024-03-02T02:23:09;47.50;;;22.30;;
82948;SDS011;72736;50.236;18.876;2024-03-02T02:28:14;50.70;;;22.80;;
82948;SDS011;72736;50.236;18.876;2024-03-02T02:33:17;52.70;;;23.70;;
82948;SDS011;72736;50.236;18.876;2024-03-02T02:38:20;44.80;;;22.40;;
82948;SDS011;72736;50.236;18.876;2024-03-02T02:43:23;49.70;;;23.90;;
82948;SDS011;72736;50.236;18.876;2024-03-02T02:48:26;51.50;;;23.50;;
82948;SDS011;72736;50.236;18.876;2024-03-02T02:53:30;48.50;;;23.20;;
82948;SDS011;72736;50.236;18.876;2024-03-02T02:58:33;51.10;;;24.50;;
82948;SDS011;72736;50.236;18.876;2024-03-02T03:03:36;55.60;;;27.40;;
82948;SDS011;72736;50.236;18.876;2024-03-02T03:08:39;80.00;;;32.90;;
82948;SDS011;72736;50.236;18.876;2024-03-02T03:13:41;55.90;;;24.30;;
82948;SDS011;72736;50.236;18.876;2024-03-02T03:18:45;48.10;;;23.00;;
82948;SDS011;72736;50.236;18.876;2024-03-02T03:23:48;47.20;;;23.10;;
82948;SDS011;72736;50.236;18.876;2024-03-02T03:28:51;44.90;;;21.80;;
82948;SDS011;72736;50.236;18.876;2024-03-02T03:33:54;48.70;;;22.60;;
82948;SDS011;72736;50.236;18.876;2024-03-02T03:38:57;47.20;;;22.70;;
82948;SDS011;72736;50.236;18.876;2024-03-02T03:44:00;57.70;;;24.80;;
82948;SDS011;72736;50.236;18.876;2024-03-02T03:49:02;47.80;;;23.30;;
82948;SDS011;72736;50.236;18.876;2024-03-02T03:54:06;49.90;;;23.60;;
82948;SDS011;72736;50.236;18.876;2024-03-02T03:59:09;45.70;;;21.60;;
82948;SDS011;72736;50.236;18.876;2024-03-02T04:04:12;41.90;;;20.70;;
82948;SDS011;72736;50.236;18.876;2024-03-02T04:09:16;40.30;;;20.00;;
82948;SDS011;72736;50.236;18.876;2024-03-02T04:14:19;40.10;;;20.40;;
82948;SDS011;72736;50.236;18.876;2024-03-02T04:19:23;39.10;;;19.00;;
82948;SDS011;72736;50.236;18.876;2024-03-02T04:24:27;40.80;;;19.90;;
82948;SDS011;72736;50.236;18.876;2024-03-02T04:29:30;42.60;;;19.60;;
82948;SDS011;72736;50.236;18.876;2024-03-02T04:34:33;39.30;;;20.00;;
82948;SDS011;72736;50.236;18.876;2024-03-02T04:39:36;46.70;;;23.50;;
82948;SDS011;72736;50.236;18.876;2024-03-02T04:44:39;56.20;;;24.80;;
82948;SDS011;72736;50.236;18.876;2024-03-02T04:49:42;51.40;;;23.70;;
82948;SDS011;72736;50.236;18.876;2024-03-02T04:54:45;49.70;;;22.50;;
82948;SDS011;72736;50.236;18.876;2024-03-02T05:00:11;68.40;;;30.60;;
82948;SDS011;72736;50.236;18.876;2024-03-02T05:05:15;84.30;;;33.00;;
82948;SDS011;72736;50.236;18.876;2024-03-02T05:10:18;50.80;;;22.90;;
82948;SDS011;72736;50.236;18.876;2024-03-02T05:15:21;44.00;;;22.30;;
82948;SDS011;72736;50.236;18.876;2024-03-02T05:20:24;47.50;;;23.90;;
82948;SDS011;72736;50.236;18.876;2024-03-02T05:25:27;47.20;;;22.70;;
82948;SDS011;72736;50.236;18.876;2024-03-02T05:30:30;43.60;;;21.90;;
82948;SDS011;72736;50.236;18.876;2024-03-02T05:35:33;46.00;;;23.30;;
82948;SDS011;72736;50.236;18.876;2024-03-02T05:40:36;47.50;;;23.40;;
82948;SDS011;72736;50.236;18.876;2024-03-02T05:45:39;52.80;;;25.20;;
82948;SDS011;72736;50.236;18.876;2024-03-02T05:50:42;52.70;;;26.60;;
82948;SDS011;72736;50.236;18.876;2024-03-02T05:55:45;57.40;;;26.80;;
82948;SDS011;72736;50.236;18.876;2024-03-02T06:00:55;57.90;;;26.60;;
82948;SDS011;72736;50.236;18.876;2024-03-02T06:05:58;61.20;;;28.00;;
82948;SDS011;72736;50.236;18.876;2024-03-02T06:11:02;63.70;;;28.80;;
82948;SDS011;72736;50.236;18.876;2024-03-02T06:16:06;68.10;;;29.20;;
82948;SDS011;72736;50.236;18.876;2024-03-02T06:21:09;52.10;;;23.70;;
82948;SDS011;72736;50.236;18.876;2024-03-02T06:26:12;50.80;;;22.60;;
82948;SDS011;72736;50.236;18.876;2024-03-02T06:31:15;46.10;;;23.10;;
82948;SDS011;72736;50.236;18.876;2024-03-02T06:36:18;47.20;;;23.00;;
82948;SDS011;72736;50.236;18.876;2024-03-02T06:41:21;46.00;;;23.40;;
82948;SDS011;72736;50.236;18.876;2024-03-02T06:46:24;46.00;;;23.30;;
82948;SDS011;72736;50.236;18.876;2024-03-02T06:51:27;46.00;;;23.30;;
82948;SDS011;72736;50.236;18.876;2024-03-02T06:56:30;52.00;;;24.10;;
82948;SDS011;72736;50.236;18.876;2024-03-02T07:01:34;50.90;;;23.50;;
82948;SDS011;72736;50.236;18.876;2024-03-02T07:06:37;56.70;;;25.40;;
82948;SDS011;72736;50.236;18.876;2024-03-02T07:11:40;54.20;;;25.10;;
82948;SDS011;72736;50.236;18.876;2024-03-02T07:16:43;53.30;;;24.50;;
82948;SDS011;72736;50.236;18.876;2024-03-02T07:21:46;48.30;;;23.90;;
82948;SDS011;72736;50.236;18.876;2024-03-02T07:26:49;53.20;;;23.60;;
82948;SDS011;72736;50.236;18.876;2024-03-02T07:31:56;58.10;;;26.80;;
82948;SDS011;72736;50.236;18.876;2024-03-02T07:36:59;48.00;;;24.90;;
82948;SDS011;72736;50.236;18.876;2024-03-02T07:42:02;51.50;;;24.60;;
82948;SDS011;72736;50.236;18.876;2024-03-02T07:47:05;51.00;;;24.60;;
82948;SDS011;72736;50.236;18.876;2024-03-02T07:52:09;49.20;;;24.60;;
82948;SDS011;72736;50.236;18.876;2024-03-02T07:57:12;49.10;;;23.70;;
82948;SDS011;72736;50.236;18.876;2024-03-02T08:02:15;47.30;;;25.60;;
82948;SDS011;72736;50.236;18.876;2024-03-02T08:07:18;52.60;;;26.30;;
82948;SDS011;72736;50.236;18.876;2024-03-02T08:12:21;48.70;;;25.60;;
82948;SDS011;72736;50.236;18.876;2024-03-02T08:17:25;48.60;;;23.90;;
82948;SDS011;72736;50.236;18.876;2024-03-02T08:22:28;51.30;;;24.20;;
82948;SDS011;72736;50.236;18.876;2024-03-02T08:27:31;48.70;;;23.90;;
82948;SDS011;72736;50.236;18.876;2024-03-02T08:32:36;49.20;;;24.40;;
82948;SDS011;72736;50.236;18.876;2024-03-02T08:37:40;46.20;;;23.30;;
82948;SDS011;72736;50.236;18.876;2024-03-02T08:42:44;46.60;;;23.00;;
82948;SDS011;72736;50.236;18.876;2024-03-02T08:47:47;54.30;;;25.70;;
82948;SDS011;72736;50.236;18.876;2024-03-02T08:52:50;49.80;;;24.50;;
82948;SDS011;72736;50.236;18.876;2024-03-02T08:57:54;53.10;;;26.90;;
82948;SDS011;72736;50.236;18.876;2024-03-02T09:02:58;47.00;;;23.50;;
82948;SDS011;72736;50.236;18.876;2024-03-02T09:08:01;49.60;;;25.30;;
82948;SDS011;72736;50.236;18.876;2024-03-02T09:13:05;46.00;;;23.30;;
82948;SDS011;72736;50.236;18.876;2024-03-02T09:18:08;44.90;;;23.50;;
82948;SDS011;72736;50.236;18.876;2024-03-02T09:23:11;45.10;;;23.20;;
82948;SDS011;72736;50.236;18.876;2024-03-02T09:28:14;48.20;;;24.30;;
82948;SDS011;72736;50.236;18.876;2024-03-02T09:33:18;50.20;;;25.10;;
82948;SDS011;72736;50.236;18.876;2024-03-02T09:38:21;48.60;;;26.00;;
82948;SDS011;72736;50.236;18.876;2024-03-02T09:43:24;50.50;;;23.60;;
82948;SDS011;72736;50.236;18.876;2024-03-02T09:48:27;43.70;;;22.60;;
82948;SDS011;72736;50.236;18.876;2024-03-02T09:53:30;48.00;;;23.50;;
82948;SDS011;72736;50.236;18.876;2024-03-02T09:58:34;45.20;;;21.80;;
82948;SDS011;72736;50.236;18.876;2024-03-02T10:03:37;40.20;;;22.50;;
82948;SDS011;72736;50.236;18.876;2024-03-02T10:08:44;44.30;;;22.70;;
82948;SDS011;72736;50.236;18.876;2024-03-02T10:13:46;47.00;;;22.70;;
82948;SDS011;72736;50.236;18.876;2024-03-02T10:18:50;39.50;;;21.90;;
82948;SDS011;72736;50.236;18.876;2024-03-02T10:23:53;42.40;;;22.10;;
82948;SDS011;72736;50.236;18.876;2024-03-02T10:29:09;39.10;;;20.20;;
82948;SDS011;72736;50.236;18.876;2024-03-02T10:34:13;37.90;;;19.60;;
82948;SDS011;72736;50.236;18.876;2024-03-02T10:39:17;38.70;;;18.90;;
82948;SDS011;72736;50.236;18.876;2024-03-02T10:44:20;34.80;;;19.30;;
82948;SDS011;72736;50.236;18.876;2024-03-02T10:49:24;37.10;;;18.30;;
82948;SDS011;72736;50.236;18.876;2024-03-02T10:54:29;35.80;;;18.20;;
82948;SDS011;72736;50.236;18.876;2024-03-02T10:59:37;39.90;;;19.20;;
82948;SDS011;72736;50.236;18.876;2024-03-02T11:04:54;38.50;;;19.30;;
82948;SDS011;72736;50.236;18.876;2024-03-02T11:09:59;35.50;;;18.60;;
82948;SDS011;72736;50.236;18.876;2024-03-02T11:15:10;35.80;;;18.90;;
82948;SDS011;72736;50.236;18.876;2024-03-02T11:20:19;34.60;;;18.20;;
82948;SDS011;72736;50.236;18.876;2024-03-02T11:25:23;35.70;;;18.30;;
82948;SDS011;72736;50.236;18.876;2024-03-02T11:30:49;37.90;;;17.70;;
82948;SDS011;72736;50.236;18.876;2024-03-02T11:35:53;33.00;;;17.80;;
82948;SDS011;72736;50.236;18.876;2024-03-02T11:40:57;34.90;;;17.20;;
82948;SDS011;72736;50.236;18.876;2024-03-02T11:46:04;26.10;;;15.30;;
82948;SDS011;72736;50.236;18.876;2024-03-02T11:51:09;31.10;;;15.90;;
82948;SDS011;72736;50.236;18.876;2024-03-02T11:56:14;29.60;;;16.00;;
82948;SDS011;72736;50.236;18.876;2024-03-02T12:01:18;27.40;;;15.60;;
82948;SDS011;72736;50.236;18.876;2024-03-02T12:06:22;30.60;;;14.80;;
82948;SDS011;72736;50.236;18.876;2024-03-02T12:11:26;26.50;;;14.40;;
82948;SDS011;72736;50.236;18.876;2024-03-02T12:16:29;31.30;;;15.20;;
82948;SDS011;72736;50.236;18.876;2024-03-02T12:21:32;25.50;;;14.40;;
82948;SDS011;72736;50.236;18.876;2024-03-02T12:26:35;29.40;;;15.90;;
82948;SDS011;72736;50.236;18.876;2024-03-02T12:31:38;28.80;;;15.40;;
82948;SDS011;72736;50.236;18.876;2024-03-02T12:36:42;27.50;;;14.60;;
82948;SDS011;72736;50.236;18.876;2024-03-02T12:41:49;27.00;;;14.70;;
82948;SDS011;72736;50.236;18.876;2024-03-02T12:46:52;29.80;;;16.00;;
82948;SDS011;72736;50.236;18.876;2024-03-02T12:52:00;32.10;;;16.90;;
82948;SDS011;72736;50.236;18.876;2024-03-02T12:57:04;28.50;;;15.30;;
82948;SDS011;72736;50.236;18.876;2024-03-02T13:02:08;35.00;;;17.30;;
82948;SDS011;72736;50.236;18.876;2024-03-02T13:07:20;31.10;;;17.10;;
82948;SDS011;72736;50.236;18.876;2024-03-02T13:12:24;32.20;;;16.80;;
82948;SDS011;72736;50.236;18.876;2024-03-02T13:17:27;31.80;;;16.40;;
82948;SDS011;72736;50.236;18.876;2024-03-02T13:22:37;29.90;;;15.80;;
82948;SDS011;72736;50.236;18.876;2024-03-02T13:27:40;26.90;;;15.60;;
82948;SDS011;72736;50.236;18.876;2024-03-02T13:32:45;31.20;;;16.70;;
82948;SDS011;72736;50.236;18.876;2024-03-02T13:37:48;27.50;;;15.10;;
82948;SDS011;72736;50.236;18.876;2024-03-02T13:42:51;26.00;;;15.40;;
82948;SDS011;72736;50.236;18.876;2024-03-02T13:47:55;34.80;;;16.30;;
82948;SDS011;72736;50.236;18.876;2024-03-02T13:52:58;28.00;;;16.40;;
82948;SDS011;72736;50.236;18.876;2024-03-02T13:58:01;30.70;;;16.10;;
82948;SDS011;72736;50.236;18.876;2024-03-02T14:03:05;29.30;;;16.40;;
82948;SDS011;72736;50.236;18.876;2024-03-02T14:08:09;32.40;;;17.20;;
82948;SDS011;72736;50.236;18.876;2024-03-02T14:13:12;36.60;;;17.40;;
82948;SDS011;72736;50.236;18.876;2024-03-02T14:18:16;34.70;;;18.50;;
82948;SDS011;72736;50.236;18.876;2024-03-02T14:23:19;34.90;;;19.10;;
82948;SDS011;72736;50.236;18.876;2024-03-02T14:28:22;40.60;;;21.10;;
82948;SDS011;72736;50.236;18.876;2024-03-02T14:33:45;40.40;;;22.20;;
82948;SDS011;72736;50.236;18.876;2024-03-02T14:38:48;39.20;;;22.40;;
82948;SDS011;72736;50.236;18.876;2024-03-02T14:43:52;40.60;;;21.40;;
82948;SDS011;72736;50.236;18.876;2024-03-02T14:48:55;34.60;;;19.30;;
82948;SDS011;72736;50.236;18.876;2024-03-02T14:53:59;40.60;;;21.60;;
82948;SDS011;72736;50.236;18.876;2024-03-02T14:59:03;40.00;;;22.30;;
82948;SDS011;72736;50.236;18.876;2024-03-02T15:04:06;40.80;;;22.30;;
82948;SDS011;72736;50.236;18.876;2024-03-02T15:09:10;41.50;;;23.70;;
82948;SDS011;72736;50.236;18.876;2024-03-02T15:14:13;43.70;;;25.10;;
82948;SDS011;72736;50.236;18.876;2024-03-02T15:19:16;49.60;;;27.00;;
82948;SDS011;72736;50.236;18.876;2024-03-02T15:24:19;53.50;;;29.20;;
82948;SDS011;72736;50.236;18.876;2024-03-02T15:29:22;72.90;;;40.10;;
82948;SDS011;72736;50.236;18.876;2024-03-02T15:34:30;53.70;;;27.70;;
82948;SDS011;72736;50.236;18.876;2024-03-02T15:39:33;49.30;;;27.70;;
82948;SDS011;72736;50.236;18.876;2024-03-02T15:44:40;43.80;;;25.20;;
82948;SDS011;72736;50.236;18.876;2024-03-02T15:54:48;35.70;;;21.10;;
82948;SDS011;72736;50.236;18.876;2024-03-02T15:59:51;33.20;;;19.20;;
82948;SDS011;72736;50.236;18.876;2024-03-02T16:04:54;33.50;;;18.30;;
82948;SDS011;72736;50.236;18.876;2024-03-02T16:09:57;31.20;;;17.40;;
82948;SDS011;72736;50.236;18.876;2024-03-02T16:15:05;33.90;;;20.30;;
82948;SDS011;72736;50.236;18.876;2024-03-02T16:20:11;40.30;;;21.60;;
82948;SDS011;72736;50.236;18.876;2024-03-02T16:25:14;34.20;;;18.90;;
82948;SDS011;72736;50.236;18.876;2024-03-02T16:30:17;89.40;;;39.60;;
82948;SDS011;72736;50.236;18.876;2024-03-02T16:35:21;348.70;;;149.40;;
82948;SDS011;72736;50.236;18.876;2024-03-02T16:40:24;115.20;;;54.50;;
82948;SDS011;72736;50.236;18.876;2024-03-02T16:45:27;196.40;;;95.30;;
82948;SDS011;72736;50.236;18.876;2024-03-02T16:50:31;225.40;;;109.40;;
82948;SDS011;72736;50.236;18.876;2024-03-02T16:55:34;130.60;;;60.40;;
82948;SDS011;72736;50.236;18.876;2024-03-02T17:00:37;59.60;;;30.40;;
82948;SDS011;72736;50.236;18.876;2024-03-02T17:05:40;53.00;;;26.70;;
82948;SDS011;72736;50.236;18.876;2024-03-02T17:10:43;38.90;;;21.00;;
82948;SDS011;72736;50.236;18.876;2024-03-02T17:15:47;32.10;;;18.70;;
82948;SDS011;72736;50.236;18.876;2024-03-02T17:20:50;32.60;;;19.00;;
82948;SDS011;72736;50.236;18.876;2024-03-02T17:25:53;31.90;;;18.30;;
82948;SDS011;72736;50.236;18.876;2024-03-02T17:30:56;33.70;;;18.50;;
82948;SDS011;72736;50.236;18.876;2024-03-02T17:36:00;36.70;;;19.80;;
82948;SDS011;72736;50.236;18.876;2024-03-02T17:41:04;37.10;;;21.20;;
82948;SDS011;72736;50.236;18.876;2024-03-02T17:46:09;47.40;;;26.10;;
82948;SDS011;72736;50.236;18.876;2024-03-02T17:51:12;60.20;;;31.10;;
82948;SDS011;72736;50.236;18.876;2024-03-02T17:56:15;120.50;;;47.40;;
82948;SDS011;72736;50.236;18.876;2024-03-02T18:01:18;59.80;;;28.00;;
82948;SDS011;72736;50.236;18.876;2024-03-02T18:06:21;43.00;;;21.10;;
82948;SDS011;72736;50.236;18.876;2024-03-02T18:11:24;44.20;;;24.00;;
82948;SDS011;72736;50.236;18.876;2024-03-02T18:16:27;44.20;;;25.20;;
82948;SDS011;72736;50.236;18.876;2024-03-02T18:21:30;47.30;;;25.60;;
82948;SDS011;72736;50.236;18.876;2024-03-02T18:26:33;52.70;;;26.40;;
82948;SDS011;72736;50.236;18.876;2024-03-02T18:31:36;47.40;;;25.90;;
82948;SDS011;72736;50.236;18.876;2024-03-02T18:36:39;47.50;;;25.70;;
82948;SDS011;72736;50.236;18.876;2024-03-02T18:41:42;40.00;;;22.40;;
82948;SDS011;72736;50.236;18.876;2024-03-02T18:46:45;42.50;;;22.90;;
82948;SDS011;72736;50.236;18.876;2024-03-02T18:51:51;41.60;;;23.30;;
82948;SDS011;72736;50.236;18.876;2024-03-02T18:56:54;42.70;;;23.40;;
82948;SDS011;72736;50.236;18.876;2024-03-02T19:01:57;45.10;;;24.70;;
82948;SDS011;72736;50.236;18.876;2024-03-02T19:07:00;47.00;;;24.60;;
82948;SDS011;72736;50.236;18.876;2024-03-02T19:12:03;45.50;;;23.10;;
82948;SDS011;72736;50.236;18.876;2024-03-02T19:17:07;50.20;;;25.90;;
82948;SDS011;72736;50.236;18.876;2024-03-02T19:22:10;45.30;;;24.90;;
82948;SDS011;72736;50.236;18.876;2024-03-02T19:27:13;48.80;;;26.10;;
82948;SDS011;72736;50.236;18.876;2024-03-02T19:32:16;48.20;;;26.30;;
82948;SDS011;72736;50.236;18.876;2024-03-02T19:37:23;45.40;;;25.20;;
82948;SDS011;72736;50.236;18.876;2024-03-02T19:42:26;50.40;;;25.70;;
82948;SDS011;72736;50.236;18.876;2024-03-02T19:47:29;49.60;;;26.40;;
82948;SDS011;72736;50.236;18.876;2024-03-02T19:52:33;43.40;;;23.30;;
82948;SDS011;72736;50.236;18.876;2024-03-02T19:57:36;40.10;;;21.70;;
82948;SDS011;72736;50.236;18.876;2024-03-02T20:02:46;116.70;;;46.50;;
82948;SDS011;72736;50.236;18.876;2024-03-02T20:07:48;65.50;;;30.40;;
82948;SDS011;72736;50.236;18.876;2024-03-02T20:12:51;56.70;;;29.50;;
82948;SDS011;72736;50.236;18.876;2024-03-02T20:17:55;51.80;;;27.50;;
82948;SDS011;72736;50.236;18.876;2024-03-02T20:22:58;52.00;;;27.20;;
82948;SDS011;72736;50.236;18.876;2024-03-02T20:28:01;52.00;;;27.50;;
82948;SDS011;72736;50.236;18.876;2024-03-02T20:33:05;45.90;;;25.00;;
82948;SDS011;72736;50.236;18.876;2024-03-02T20:38:08;44.40;;;24.60;;
82948;SDS011;72736;50.236;18.876;2024-03-02T20:43:11;44.80;;;24.50;;
82948;SDS011;72736;50.236;18.876;2024-03-02T20:48:15;49.40;;;24.90;;
82948;SDS011;72736;50.236;18.876;2024-03-02T20:53:19;46.60;;;25.00;;
82948;SDS011;72736;50.236;18.876;2024-03-02T20:58:22;47.10;;;25.60;;
82948;SDS011;72736;50.236;18.876;2024-03-02T21:03:25;42.90;;;25.00;;
82948;SDS011;72736;50.236;18.876;2024-03-02T21:08:28;50.10;;;27.30;;
82948;SDS011;72736;50.236;18.876;2024-03-02T21:13:31;49.60;;;26.60;;
82948;SDS011;72736;50.236;18.876;2024-03-02T21:18:34;47.90;;;25.90;;
82948;SDS011;72736;50.236;18.876;2024-03-02T21:23:36;55.40;;;28.50;;
82948;SDS011;72736;50.236;18.876;2024-03-02T21:28:39;57.30;;;30.00;;
82948;SDS011;72736;50.236;18.876;2024-03-02T21:33:42;60.10;;;31.20;;
82948;SDS011;72736;50.236;18.876;2024-03-02T21:38:45;59.60;;;30.10;;
82948;SDS011;72736;50.236;18.876;2024-03-02T21:43:48;59.00;;;30.20;;
82948;SDS011;72736;50.236;18.876;2024-03-02T21:48:51;56.70;;;29.90;;
82948;SDS011;72736;50.236;18.876;2024-03-02T21:53:54;57.00;;;29.20;;
82948;SDS011;72736;50.236;18.876;2024-03-02T21:58:59;59.80;;;29.00;;
82948;SDS011;72736;50.236;18.876;2024-03-02T22:04:02;55.80;;;29.30;;
82948;SDS011;72736;50.236;18.876;2024-03-02T22:09:06;56.90;;;29.80;;
82948;SDS011;72736;50.236;18.876;2024-03-02T22:14:08;67.70;;;33.60;;
82948;SDS011;72736;50.236;18.876;2024-03-02T22:19:11;69.70;;;36.50;;
82948;SDS011;72736;50.236;18.876;2024-03-02T22:24:15;77.00;;;39.50;;
82948;SDS011;72736;50.236;18.876;2024-03-02T22:29:18;86.40;;;45.00;;
82948;SDS011;72736;50.236;18.876;2024-03-02T22:34:20;90.80;;;43.30;;
82948;SDS011;72736;50.236;18.876;2024-03-02T22:39:23;80.50;;;42.20;;
82948;SDS011;72736;50.236;18.876;2024-03-02T22:44:26;82.60;;;38.80;;
82948;SDS011;72736;50.236;18.876;2024-03-02T22:49:29;69.60;;;35.50;;
82948;SDS011;72736;50.236;18.876;2024-03-02T22:54:32;70.90;;;34.70;;
82948;SDS011;72736;50.236;18.876;2024-03-02T22:59:35;72.20;;;37.20;;
82948;SDS011;72736;50.236;18.876;2024-03-02T23:04:38;78.80;;;39.60;;
82948;SDS011;72736;50.236;18.876;2024-03-02T23:09:41;76.40;;;38.00;;
82948;SDS011;72736;50.236;18.876;2024-03-02T23:14:44;78.00;;;37.90;;
82948;SDS011;72736;50.236;18.876;2024-03-02T23:19:47;80.70;;;38.00;;
82948;SDS011;72736;50.236;18.876;2024-03-02T23:24:50;77.40;;;37.60;;
82948;SDS011;72736;50.236;18.876;2024-03-02T23:29:53;77.60;;;36.80;;
82948;SDS011;72736;50.236;18.876;2024-03-02T23:34:56;80.90;;;39.30;;
82948;SDS011;72736;50.236;18.876;2024-03-02T23:39:58;77.90;;;38.20;;
82948;SDS011;72736;50.236;18.876;2024-03-02T23:45:26;75.40;;;36.60;;
82948;SDS011;72736;50.236;18.876;2024-03-02T23:50:29;78.20;;;37.70;;
82948;SDS011;72736;50.236;18.876;2024-03-02T23:55:32;73.90;;;37.60;;
